createdAt,value
2019-05-20T00:00:17.990Z,99779.11
2019-05-20T00:05:42.372Z,99785.56
2019-05-20T00:11:06.602Z,99788.20
2019-05-20T00:16:31.283Z,99797.08
2019-05-20T00:21:55.641Z,99790.66
2019-05-20T00:27:20.597Z,99792.48
2019-05-20T00:32:44.259Z,99792.83
2019-05-20T00:38:08.641Z,99793.80
2019-05-20T00:43:33.434Z,99798.72
2019-05-20T00:48:57.555Z,99795.91
2019-05-20T00:54:21.854Z,99791.06
2019-05-20T00:59:46.111Z,99789.63
2019-05-20T01:05:10.053Z,99784.53
2019-05-20T01:10:34.219Z,99789.10
2019-05-20T01:15:57.951Z,99791.70
2019-05-20T01:21:22.679Z,99790.74
2019-05-20T01:26:46.238Z,99788.42
2019-05-20T01:32:10.919Z,99783.97
2019-05-20T01:37:36.079Z,99778.37
2019-05-20T01:43:01.089Z,99776.55
2019-05-20T01:48:25.790Z,99764.50
2019-05-20T01:53:50.104Z,99763.86
2019-05-20T01:59:14.699Z,99767.47
2019-05-20T02:04:39.591Z,99766.64
2019-05-20T02:10:03.839Z,99769.06
2019-05-20T02:15:46.072Z,99764.60
2019-05-20T02:21:10.979Z,99752.73
2019-05-20T02:26:36.122Z,99748.45
2019-05-20T02:32:00.621Z,99740.40
2019-05-20T02:37:24.336Z,99739.22
2019-05-20T02:42:49.478Z,99736.09
2019-05-20T02:48:13.553Z,99736.23
2019-05-20T02:53:38.264Z,99736.55
2019-05-20T02:59:02.624Z,99733.91
2019-05-20T03:04:26.514Z,99740.04
2019-05-20T03:09:51.494Z,99734.41
2019-05-20T03:15:16.292Z,99731.91
2019-05-20T03:20:41.296Z,99731.95
2019-05-20T03:26:06.049Z,99734.41
2019-05-20T03:31:29.734Z,99732.09
2019-05-20T03:36:53.423Z,99727.14
2019-05-20T03:42:17.399Z,99728.00
2019-05-20T03:47:42.408Z,99720.44
2019-05-20T03:53:06.794Z,99726.92
2019-05-20T03:58:30.902Z,99724.28
2019-05-20T04:03:55.447Z,99719.37
2019-05-20T04:09:19.182Z,99715.42
2019-05-20T04:14:43.603Z,99715.61
2019-05-20T04:20:08.426Z,99717.57
2019-05-20T04:25:32.580Z,99723.52
2019-05-20T04:30:56.461Z,99722.12
2019-05-20T04:36:20.164Z,99720.38
2019-05-20T04:41:44.885Z,99721.71
2019-05-20T04:47:09.727Z,99729.94
2019-05-20T04:52:34.327Z,99735.55
2019-05-20T04:57:58.657Z,99736.52
2019-05-20T05:03:23.772Z,99739.20
2019-05-20T05:08:48.606Z,99743.09
2019-05-20T05:14:13.233Z,99753.30
2019-05-20T05:19:37.809Z,99744.05
2019-05-20T05:25:02.583Z,99748.09
2019-05-20T05:30:27.068Z,99743.75
2019-05-20T05:35:53.655Z,99744.02
2019-05-20T05:41:18.180Z,99738.11
2019-05-20T05:46:41.963Z,99730.98
2019-05-20T05:52:06.600Z,99727.00
2019-05-20T05:57:31.528Z,99730.09
2019-05-20T06:02:56.244Z,99736.38
2019-05-20T06:08:21.148Z,99744.13
2019-05-20T06:13:45.114Z,99738.69
2019-05-20T06:19:08.791Z,99733.09
2019-05-20T06:24:32.767Z,99720.47
2019-05-20T06:29:57.774Z,99717.16
2019-05-20T06:35:22.553Z,99713.86
2019-05-20T06:40:51.476Z,99713.86
2019-05-20T06:46:15.947Z,99723.45
2019-05-20T06:51:41.216Z,99711.47
2019-05-20T06:57:05.802Z,99720.30
2019-05-20T07:02:30.741Z,99718.53
2019-05-20T07:07:54.756Z,99712.79
2019-05-20T07:13:19.136Z,99714.59
2019-05-20T07:18:42.941Z,99711.44
2019-05-20T07:24:07.683Z,99703.63
2019-05-20T07:29:31.622Z,99704.24
2019-05-20T07:34:55.546Z,99712.27
2019-05-20T07:40:30.582Z,99708.28
2019-05-20T07:45:55.369Z,99700.22
2019-05-20T07:51:20.900Z,99702.22
2019-05-20T07:56:47.617Z,99701.87
2019-05-20T08:02:12.430Z,99702.98
2019-05-20T08:07:51.217Z,99709.39
2019-05-20T08:13:02.794Z,99696.18
2019-05-20T08:18:26.722Z,99697.76
2019-05-20T08:23:50.618Z,99703.89
2019-05-20T08:29:15.325Z,99701.22
2019-05-20T08:34:39.804Z,99697.30
2019-05-20T08:40:05.561Z,99706.41
2019-05-20T08:45:29.730Z,99698.83
2019-05-20T08:50:53.984Z,99696.09
2019-05-20T08:56:18.810Z,99698.98
2019-05-20T09:01:43.205Z,99692.83
2019-05-20T09:07:07.740Z,99695.43
2019-05-20T09:12:31.653Z,99678.25
2019-05-20T09:17:55.748Z,99682.82
2019-05-20T09:23:19.628Z,99680.59
2019-05-20T09:28:43.599Z,99679.58
2019-05-20T09:34:08.398Z,99678.97
2019-05-20T09:39:32.945Z,99680.66
2019-05-20T09:45:01.774Z,99667.97
2019-05-20T09:50:23.362Z,99660.33
2019-05-20T09:55:47.018Z,99655.34
2019-05-20T10:01:11.222Z,99654.12
2019-05-20T10:06:35.115Z,99658.51
2019-05-20T10:11:59.784Z,99646.84
2019-05-20T10:17:23.878Z,99647.56
2019-05-20T10:22:48.569Z,99648.44
2019-05-20T10:28:12.972Z,99640.49
2019-05-20T10:33:37.490Z,99647.61
2019-05-20T10:39:01.930Z,99634.72
2019-05-20T10:44:27.539Z,99638.45
2019-05-20T10:49:52.107Z,99644.58
2019-05-20T10:55:16.574Z,99640.88
2019-05-20T11:00:40.298Z,99638.59
2019-05-20T11:06:05.063Z,99635.04
2019-05-20T11:11:29.981Z,99646.89
2019-05-20T11:16:54.378Z,99640.22
2019-05-20T11:22:18.481Z,99641.70
2019-05-20T11:27:43.516Z,99635.31
2019-05-20T11:33:08.358Z,99633.66
2019-05-20T11:38:33.286Z,99629.80
2019-05-20T11:43:57.606Z,99634.27
2019-05-20T11:49:21.428Z,99635.50
2019-05-20T11:54:46.226Z,99619.67
2019-05-20T12:00:12.033Z,99616.14
2019-05-20T12:05:36.578Z,99617.63
2019-05-20T12:11:00.973Z,99616.89
2019-05-20T12:16:25.488Z,99607.38
2019-05-20T12:21:49.900Z,99604.45
2019-05-20T12:27:13.829Z,99590.59
2019-05-20T12:32:38.528Z,99579.93
2019-05-20T12:38:03.138Z,99567.09
2019-05-20T12:43:27.959Z,99560.81
2019-05-20T12:48:52.114Z,99563.59
2019-05-20T12:54:16.250Z,99559.29
2019-05-20T12:59:39.889Z,99551.65
2019-05-20T13:05:06.002Z,99535.37
2019-05-20T13:10:32.256Z,99525.61
2019-05-20T13:15:56.250Z,99518.86
2019-05-20T13:21:20.050Z,99514.73
2019-05-20T13:26:44.844Z,99511.81
2019-05-20T13:32:08.908Z,99513.14
2019-05-20T13:37:33.818Z,99516.62
2019-05-20T13:42:57.735Z,99522.33
2019-05-20T13:48:22.422Z,99509.55
2019-05-20T13:53:46.940Z,99502.76
2019-05-20T13:59:11.847Z,99487.52
2019-05-20T14:04:36.549Z,99497.43
2019-05-20T14:10:01.454Z,99486.33
2019-05-20T14:15:26.821Z,99481.03
2019-05-20T14:20:50.407Z,99479.58
2019-05-20T14:26:14.952Z,99483.90
2019-05-20T14:31:39.272Z,99493.48
2019-05-20T14:37:03.098Z,99497.13
2019-05-20T14:42:26.733Z,99502.12
2019-05-20T14:47:51.388Z,99494.48
2019-05-20T14:53:15.231Z,99501.25
2019-05-20T14:58:38.793Z,99491.71
2019-05-20T15:04:03.399Z,99486.11
2019-05-20T15:09:27.338Z,99504.61
2019-05-20T15:14:51.117Z,99528.72
2019-05-20T15:20:15.514Z,99552.92
2019-05-20T15:25:39.379Z,99557.25
2019-05-20T15:31:04.056Z,99577.36
2019-05-20T15:36:28.729Z,99557.74
2019-05-20T15:41:53.109Z,99579.14
2019-05-20T15:47:18.890Z,99552.95
2019-05-20T15:52:44.270Z,99545.88
2019-05-20T15:58:07.866Z,99544.89
2019-05-20T16:03:31.966Z,99532.69
2019-05-20T16:08:57.093Z,99524.83
2019-05-20T16:14:22.020Z,99507.44
2019-05-20T16:19:47.136Z,99485.47
2019-05-20T16:25:12.037Z,99472.27
2019-05-20T16:30:36.564Z,99478.34
2019-05-20T16:36:01.048Z,99481.11
2019-05-20T16:41:24.973Z,99479.23
2019-05-20T16:46:48.646Z,99472.91
2019-05-20T16:52:12.890Z,99470.38
2019-05-20T16:57:37.742Z,99463.96
2019-05-20T17:03:02.481Z,99473.97
2019-05-20T17:08:26.462Z,99476.08
2019-05-20T17:13:51.565Z,99474.33
2019-05-20T17:19:16.475Z,99485.11
2019-05-20T17:24:41.194Z,99487.83
2019-05-20T17:30:06.421Z,99486.20
2019-05-20T17:35:30.990Z,99480.66
2019-05-20T17:40:55.119Z,99494.17
2019-05-20T17:46:19.225Z,99478.32
2019-05-20T17:51:44.208Z,99490.22
2019-05-20T17:57:08.966Z,99494.75
2019-05-20T18:02:34.075Z,99489.50
2019-05-20T18:22:11.808Z,99489.50
2019-05-20T18:27:35.680Z,99489.50
2019-05-20T18:32:59.516Z,99512.73
2019-05-20T18:38:23.565Z,99517.02
2019-05-20T18:43:48.301Z,99512.97
2019-05-20T18:49:12.742Z,99509.88
2019-05-20T18:54:36.529Z,99523.38
2019-05-20T19:00:01.106Z,99522.73
2019-05-20T19:05:25.923Z,99527.59
2019-05-20T19:10:49.516Z,99537.67
2019-05-20T19:16:13.745Z,99552.37
2019-05-20T19:21:38.297Z,99549.63
2019-05-20T19:27:04.737Z,99549.44
2019-05-20T19:32:29.627Z,99558.73
2019-05-20T19:37:54.054Z,99562.85
2019-05-20T19:43:17.847Z,99560.77
2019-05-20T19:48:41.465Z,99563.66
2019-05-20T19:54:05.649Z,99559.58
2019-05-20T19:59:30.319Z,99581.65
2019-05-20T20:04:56.126Z,99588.11
2019-05-20T20:10:20.497Z,99586.34
2019-05-20T20:15:44.476Z,99601.24
2019-05-20T20:21:09.204Z,99612.17
2019-05-20T20:26:34.340Z,99610.22
2019-05-20T20:31:58.852Z,99609.88
2019-05-20T20:37:23.919Z,99613.05
2019-05-20T20:42:49.062Z,99619.53
2019-05-20T20:48:13.492Z,99619.55
2019-05-20T20:53:37.420Z,99620.05
2019-05-20T20:59:02.126Z,99621.08
2019-05-20T21:04:26.438Z,99631.55
2019-05-20T21:09:51.066Z,99641.33
2019-05-20T21:15:15.008Z,99646.28
2019-05-20T21:20:39.380Z,99648.60
2019-05-20T21:26:04.151Z,99651.57
2019-05-20T21:31:28.654Z,99651.27
2019-05-20T21:36:53.016Z,99653.07
2019-05-20T21:42:18.268Z,99646.97
2019-05-20T21:47:44.820Z,99661.11
2019-05-20T21:53:09.606Z,99661.29
2019-05-20T21:58:34.142Z,99659.13
2019-05-20T22:03:58.138Z,99664.41
2019-05-20T22:09:22.471Z,99664.23
2019-05-20T22:14:47.229Z,99663.03
2019-05-20T22:20:11.770Z,99642.91
2019-05-20T22:25:37.285Z,99652.09
2019-05-20T22:31:02.228Z,99652.19
2019-05-20T22:36:26.252Z,99659.59
2019-05-20T22:41:51.113Z,99652.36
2019-05-20T22:47:16.042Z,99655.75
2019-05-20T22:52:40.153Z,99651.82
2019-05-20T22:58:04.875Z,99659.16
2019-05-20T23:03:29.601Z,99653.50
2019-05-20T23:08:54.630Z,99654.95
2019-05-20T23:14:19.560Z,99664.31
2019-05-20T23:19:44.263Z,99667.38
2019-05-20T23:25:07.831Z,99673.55
2019-05-20T23:30:32.399Z,99658.20
2019-05-20T23:35:56.383Z,99659.88
2019-05-20T23:41:21.089Z,99666.10
2019-05-20T23:46:45.762Z,99667.63
2019-05-20T23:52:09.684Z,99665.55
2019-05-20T23:57:33.435Z,99665.87
